createdAt,value
2022-10-06T00:01:05.488Z,11.50
2022-10-06T00:03:32.634Z,11.50
2022-10-06T00:06:00.673Z,11.50
2022-10-06T00:08:27.844Z,11.50
2022-10-06T00:10:56.244Z,11.50
2022-10-06T00:13:25.875Z,11.50
2022-10-06T00:15:52.730Z,11.50
2022-10-06T00:18:19.547Z,11.40
2022-10-06T00:20:46.337Z,11.40
2022-10-06T00:23:13.071Z,11.40
2022-10-06T00:25:39.887Z,11.40
2022-10-06T00:28:06.676Z,11.40
2022-10-06T00:30:33.460Z,11.40
2022-10-06T00:33:01.555Z,11.30
2022-10-06T00:35:29.591Z,11.30
2022-10-06T00:37:56.398Z,11.30
2022-10-06T00:40:23.257Z,11.30
2022-10-06T00:42:57.354Z,11.30
2022-10-06T00:45:26.087Z,11.30
2022-10-06T00:47:53.398Z,11.20
2022-10-06T00:50:20.375Z,11.20
2022-10-06T00:52:47.187Z,11.20
2022-10-06T00:55:14.322Z,11.20
2022-10-06T00:57:41.120Z,11.10
2022-10-06T01:00:08.599Z,11.20
2022-10-06T01:02:42.907Z,11.10
2022-10-06T01:05:10.040Z,11.10
2022-10-06T01:07:36.791Z,11.00
2022-10-06T01:10:03.717Z,11.00
2022-10-06T01:12:30.845Z,11.00
2022-10-06T01:14:57.618Z,11.00
2022-10-06T01:17:42.178Z,11.00
2022-10-06T01:20:14.482Z,11.00
2022-10-06T01:22:43.539Z,10.90
2022-10-06T01:25:11.333Z,10.90
2022-10-06T01:27:38.936Z,10.90
2022-10-06T01:30:07.272Z,10.90
2022-10-06T01:32:37.818Z,10.80
2022-10-06T01:35:06.017Z,10.80
2022-10-06T01:37:33.029Z,10.80
2022-10-06T01:39:59.910Z,10.80
2022-10-06T01:42:26.787Z,10.80
2022-10-06T01:44:53.622Z,10.70
2022-10-06T01:47:20.426Z,10.70
2022-10-06T01:49:47.278Z,10.60
2022-10-06T01:52:14.926Z,10.60
2022-10-06T01:54:41.706Z,10.50
2022-10-06T01:57:09.073Z,10.50
2022-10-06T01:59:35.850Z,10.50
2022-10-06T02:02:02.763Z,10.50
2022-10-06T02:04:31.536Z,10.40
2022-10-06T02:06:59.090Z,10.40
2022-10-06T02:09:26.599Z,10.40
2022-10-06T02:11:54.853Z,10.30
2022-10-06T02:14:21.755Z,10.30
2022-10-06T02:16:48.669Z,10.30
2022-10-06T02:19:16.408Z,10.30
2022-10-06T02:21:43.380Z,10.20
2022-10-06T02:24:10.217Z,10.20
2022-10-06T02:26:37.043Z,10.10
2022-10-06T02:29:03.921Z,10.10
2022-10-06T02:31:31.802Z,10.10
2022-10-06T02:33:59.059Z,10.10
2022-10-06T02:36:26.361Z,10.10
2022-10-06T02:38:53.927Z,10.10
2022-10-06T02:41:21.007Z,10.00
2022-10-06T02:43:47.942Z,10.00
2022-10-06T02:46:15.181Z,10.00
2022-10-06T02:48:48.495Z,10.00
2022-10-06T02:51:15.961Z,10.00
2022-10-06T02:53:44.138Z,10.00
2022-10-06T02:56:12.294Z,9.90
2022-10-06T02:58:40.092Z,9.90
2022-10-06T03:01:10.945Z,9.90
2022-10-06T03:03:37.760Z,9.90
2022-10-06T03:06:05.547Z,9.90
2022-10-06T03:08:34.102Z,9.90
2022-10-06T03:11:02.344Z,9.90
2022-10-06T03:13:30.341Z,9.90
2022-10-06T03:15:57.511Z,9.80
2022-10-06T03:18:24.853Z,9.80
2022-10-06T03:20:54.076Z,9.80
2022-10-06T03:23:21.127Z,9.80
2022-10-06T03:25:55.123Z,9.80
2022-10-06T03:28:22.354Z,9.80
2022-10-06T03:30:49.274Z,9.80
2022-10-06T03:33:16.620Z,9.70
2022-10-06T03:35:43.690Z,9.70
2022-10-06T03:38:10.827Z,9.70
2022-10-06T03:40:37.658Z,9.70
2022-10-06T03:43:04.714Z,9.70
2022-10-06T03:45:31.548Z,9.70
2022-10-06T03:47:59.308Z,9.60
2022-10-06T03:50:26.470Z,9.60
2022-10-06T03:52:53.466Z,9.60
2022-10-06T03:55:20.332Z,9.50
2022-10-06T03:57:47.177Z,9.50
2022-10-06T04:00:14.338Z,9.50
2022-10-06T04:02:41.570Z,9.40
2022-10-06T04:05:09.118Z,9.40
2022-10-06T04:07:35.973Z,9.40
2022-10-06T04:10:02.971Z,9.30
2022-10-06T04:12:30.014Z,9.30
2022-10-06T04:15:00.118Z,9.30
2022-10-06T04:17:28.078Z,9.20
2022-10-06T04:19:55.392Z,9.20
2022-10-06T04:22:22.222Z,9.20
2022-10-06T04:24:49.095Z,9.20
2022-10-06T04:27:28.207Z,9.20
2022-10-06T04:30:05.403Z,9.20
2022-10-06T04:32:33.105Z,9.10
2022-10-06T04:35:00.739Z,9.10
2022-10-06T04:37:29.042Z,9.10
2022-10-06T04:39:57.847Z,9.10
2022-10-06T04:42:25.142Z,9.10
2022-10-06T04:44:52.768Z,9.10
2022-10-06T04:47:20.409Z,9.10
2022-10-06T04:49:48.575Z,9.10
2022-10-06T04:52:15.966Z,9.10
2022-10-06T04:54:42.763Z,9.10
2022-10-06T04:57:09.821Z,9.10
2022-10-06T04:59:55.633Z,9.00
2022-10-06T05:02:23.634Z,9.00
2022-10-06T05:04:53.445Z,9.00
2022-10-06T05:07:22.689Z,9.00
2022-10-06T05:09:49.467Z,9.00
2022-10-06T05:12:17.769Z,9.00
2022-10-06T05:14:46.886Z,9.00
2022-10-06T05:17:14.194Z,8.90
2022-10-06T05:19:41.337Z,8.90
2022-10-06T05:22:08.338Z,9.00
2022-10-06T05:24:35.800Z,9.00
2022-10-06T05:27:04.046Z,8.90
2022-10-06T05:29:34.000Z,8.90
2022-10-06T05:32:02.192Z,9.00
2022-10-06T05:34:29.675Z,8.90
2022-10-06T05:36:56.525Z,8.90
2022-10-06T05:39:23.295Z,8.90
2022-10-06T05:41:54.549Z,8.90
2022-10-06T05:44:21.611Z,8.90
2022-10-06T05:46:48.526Z,8.90
2022-10-06T05:49:15.610Z,8.90
2022-10-06T05:51:47.558Z,8.90
2022-10-06T05:54:18.373Z,8.90
2022-10-06T05:56:45.223Z,8.90
2022-10-06T05:59:12.071Z,8.90
2022-10-06T06:01:42.599Z,8.90
2022-10-06T06:04:23.283Z,8.90
2022-10-06T06:06:53.015Z,8.80
2022-10-06T06:09:22.709Z,8.80
2022-10-06T06:11:55.643Z,8.80
2022-10-06T06:14:49.416Z,8.80
2022-10-06T06:17:20.538Z,8.80
2022-10-06T06:19:47.419Z,8.80
2022-10-06T06:22:15.708Z,8.90
2022-10-06T06:24:44.671Z,8.90
2022-10-06T06:27:11.871Z,8.90
2022-10-06T06:29:40.231Z,8.90
2022-10-06T06:32:09.672Z,9.00
2022-10-06T06:34:37.242Z,9.00
2022-10-06T06:37:08.418Z,9.00
2022-10-06T06:39:36.978Z,9.10
2022-10-06T06:42:05.229Z,9.10
2022-10-06T06:44:38.017Z,9.10
2022-10-06T06:47:11.482Z,9.10
2022-10-06T06:49:38.687Z,9.10
2022-10-06T06:52:08.283Z,9.10
2022-10-06T06:54:37.717Z,9.20
2022-10-06T06:57:11.749Z,9.20
2022-10-06T06:59:39.066Z,9.30
2022-10-06T07:02:09.235Z,9.30
2022-10-06T07:04:38.894Z,9.40
2022-10-06T07:07:08.498Z,9.40
2022-10-06T07:09:36.959Z,9.50
2022-10-06T07:12:11.575Z,9.50
2022-10-06T07:15:02.565Z,9.60
2022-10-06T07:17:50.434Z,9.60
2022-10-06T07:20:36.492Z,9.70
2022-10-06T07:23:22.922Z,9.70
2022-10-06T07:25:53.247Z,9.80
2022-10-06T07:28:21.362Z,9.90
2022-10-06T07:30:48.470Z,9.90
2022-10-06T07:33:19.366Z,10.00
2022-10-06T07:35:47.483Z,10.20
2022-10-06T07:38:16.758Z,10.30
2022-10-06T07:41:14.543Z,10.60
2022-10-06T07:43:40.075Z,10.80
2022-10-06T07:46:13.278Z,11.10
2022-10-06T07:48:47.735Z,11.20
2022-10-06T07:51:15.413Z,11.50
2022-10-06T07:53:46.712Z,11.60
2022-10-06T07:56:27.643Z,11.70
2022-10-06T07:58:58.671Z,11.70
2022-10-06T08:01:27.438Z,11.70
2022-10-06T08:03:54.395Z,11.80
2022-10-06T08:06:23.681Z,11.90
2022-10-06T08:08:53.243Z,12.20
2022-10-06T08:11:21.069Z,12.20
2022-10-06T08:13:48.435Z,12.20
2022-10-06T08:16:16.223Z,12.20
2022-10-06T08:18:47.192Z,12.20
2022-10-06T08:21:15.188Z,12.20
2022-10-06T08:23:42.555Z,12.20
2022-10-06T08:26:09.877Z,12.20
2022-10-06T08:28:37.024Z,12.20
2022-10-06T08:31:04.777Z,12.20
2022-10-06T08:33:31.612Z,12.20
2022-10-06T08:36:05.078Z,12.30
2022-10-06T08:38:32.183Z,12.30
2022-10-06T08:40:59.042Z,12.40
2022-10-06T08:43:25.839Z,12.40
2022-10-06T08:45:52.995Z,12.50
2022-10-06T08:48:20.354Z,12.60
2022-10-06T08:51:05.823Z,12.70
2022-10-06T08:53:35.828Z,12.70
2022-10-06T08:56:18.493Z,12.80
2022-10-06T08:58:52.721Z,12.80
2022-10-06T09:01:20.437Z,12.90
2022-10-06T09:03:48.874Z,13.00
2022-10-06T09:06:34.606Z,13.00
2022-10-06T09:09:18.867Z,13.10
2022-10-06T09:11:46.882Z,13.10
2022-10-06T09:14:19.298Z,13.20
2022-10-06T09:16:47.452Z,13.30
2022-10-06T09:19:15.485Z,13.30
2022-10-06T09:21:52.188Z,13.30
2022-10-06T09:24:20.593Z,13.40
2022-10-06T09:26:48.090Z,13.50
2022-10-06T09:29:14.950Z,13.60
2022-10-06T09:31:49.013Z,13.70
2022-10-06T09:34:28.177Z,13.80
2022-10-06T09:37:02.767Z,13.80
2022-10-06T09:39:33.224Z,13.90
2022-10-06T09:42:00.574Z,13.90
2022-10-06T09:44:27.827Z,13.90
2022-10-06T09:46:54.789Z,14.00
2022-10-06T09:49:22.251Z,14.00
2022-10-06T09:52:04.401Z,14.10
2022-10-06T09:54:31.464Z,14.20
2022-10-06T09:56:59.433Z,14.30
2022-10-06T09:59:29.754Z,14.40
2022-10-06T10:01:56.665Z,14.40
2022-10-06T10:04:25.095Z,14.50
2022-10-06T10:06:52.119Z,14.50
2022-10-06T10:09:26.329Z,14.60
2022-10-06T10:12:26.687Z,14.60
2022-10-06T10:15:01.932Z,14.70
2022-10-06T10:17:32.874Z,14.70
2022-10-06T10:20:01.011Z,14.80
2022-10-06T10:22:32.927Z,14.90
2022-10-06T10:24:59.782Z,15.00
2022-10-06T10:27:32.770Z,15.00
2022-10-06T10:30:05.640Z,15.10
2022-10-06T10:32:51.112Z,15.10
2022-10-06T10:35:37.933Z,15.20
2022-10-06T10:38:14.530Z,15.20
2022-10-06T10:40:44.733Z,15.20
2022-10-06T10:43:18.300Z,15.30
2022-10-06T10:45:46.343Z,15.40
2022-10-06T10:48:14.890Z,15.40
2022-10-06T10:50:53.571Z,15.40
2022-10-06T10:53:31.755Z,15.50
2022-10-06T10:55:59.126Z,15.60
2022-10-06T10:58:29.142Z,15.60
2022-10-06T11:00:57.764Z,15.60
2022-10-06T11:03:24.545Z,15.70
2022-10-06T11:05:54.229Z,15.70
2022-10-06T11:08:29.796Z,15.70
2022-10-06T11:11:00.497Z,15.80
2022-10-06T11:13:28.999Z,15.90
2022-10-06T11:16:03.256Z,16.00
2022-10-06T11:18:40.237Z,16.00
2022-10-06T11:21:16.027Z,16.10
2022-10-06T11:23:51.040Z,16.10
2022-10-06T11:26:18.038Z,16.20
2022-10-06T11:28:49.921Z,16.30
2022-10-06T11:31:27.078Z,16.30
2022-10-06T11:33:54.499Z,16.40
2022-10-06T11:36:39.915Z,16.40
2022-10-06T11:39:19.399Z,16.40
2022-10-06T11:41:49.447Z,16.40
2022-10-06T11:44:23.706Z,16.50
2022-10-06T11:46:54.977Z,16.60
2022-10-06T11:49:34.290Z,16.70
2022-10-06T11:52:08.305Z,16.80
2022-10-06T11:54:47.761Z,16.90
2022-10-06T11:57:29.339Z,17.00
2022-10-06T12:00:00.635Z,17.00
2022-10-06T12:02:30.551Z,17.10
2022-10-06T12:05:28.662Z,17.10
2022-10-06T12:07:56.744Z,17.10
2022-10-06T12:10:29.765Z,17.20
2022-10-06T12:13:13.890Z,17.30
2022-10-06T12:18:43.015Z,17.40
2022-10-06T12:21:45.670Z,17.50
2022-10-06T12:24:30.291Z,17.60
2022-10-06T12:27:15.900Z,17.60
2022-10-06T12:30:09.085Z,17.60
2022-10-06T12:32:54.963Z,17.60
2022-10-06T12:35:29.093Z,17.60
2022-10-06T12:37:58.446Z,17.50
2022-10-06T12:40:44.305Z,17.50
2022-10-06T12:43:21.040Z,17.60
2022-10-06T12:45:50.553Z,17.60
2022-10-06T12:48:29.113Z,17.60
2022-10-06T12:51:03.038Z,17.50
2022-10-06T12:53:34.093Z,17.50
2022-10-06T12:56:02.792Z,17.60
2022-10-06T12:58:31.160Z,17.70
2022-10-06T13:01:07.756Z,17.80
2022-10-06T13:03:34.697Z,17.80
2022-10-06T13:06:03.349Z,17.80
2022-10-06T13:08:36.854Z,17.80
2022-10-06T13:11:13.578Z,17.80
2022-10-06T13:13:49.615Z,17.70
2022-10-06T13:16:17.285Z,17.60
2022-10-06T13:18:44.149Z,17.50
2022-10-06T13:21:16.169Z,17.40
2022-10-06T13:23:43.164Z,17.50
2022-10-06T13:26:13.044Z,17.50
2022-10-06T13:28:39.845Z,17.50
2022-10-06T13:31:27.410Z,17.60
2022-10-06T13:33:55.727Z,17.70
2022-10-06T13:36:23.670Z,17.80
2022-10-06T13:38:50.570Z,17.80
2022-10-06T13:41:19.610Z,17.80
2022-10-06T13:43:56.351Z,17.80
2022-10-06T13:46:24.197Z,17.90
2022-10-06T13:49:00.829Z,17.90
2022-10-06T13:51:30.214Z,17.90
2022-10-06T13:54:01.389Z,18.00
2022-10-06T13:56:38.057Z,18.00
2022-10-06T13:59:20.169Z,18.00
2022-10-06T14:01:47.045Z,18.10
2022-10-06T14:04:20.426Z,18.10
2022-10-06T14:07:05.557Z,18.10
2022-10-06T14:09:32.618Z,18.10
2022-10-06T14:12:06.896Z,18.10
2022-10-06T14:14:33.674Z,18.10
2022-10-06T14:17:00.451Z,18.00
2022-10-06T14:19:31.043Z,17.90
2022-10-06T14:21:57.837Z,17.90
2022-10-06T14:24:27.226Z,17.90
2022-10-06T14:26:55.048Z,17.90
2022-10-06T14:29:22.274Z,17.90
2022-10-06T14:31:49.363Z,17.90
2022-10-06T14:34:17.013Z,17.80
2022-10-06T14:36:44.643Z,17.90
2022-10-06T14:39:12.007Z,17.90
2022-10-06T14:41:38.896Z,17.90
2022-10-06T14:44:07.086Z,18.00
2022-10-06T14:46:33.928Z,18.10
2022-10-06T14:49:03.003Z,18.20
2022-10-06T14:51:31.064Z,18.20
2022-10-06T14:54:01.441Z,18.20
2022-10-06T14:56:31.841Z,18.20
2022-10-06T14:59:00.316Z,18.10
2022-10-06T15:01:28.429Z,18.10
2022-10-06T15:03:59.081Z,18.10
2022-10-06T15:06:44.823Z,17.90
2022-10-06T15:09:11.594Z,17.90
2022-10-06T15:11:38.415Z,17.70
2022-10-06T15:14:05.561Z,17.70
2022-10-06T15:16:32.712Z,17.70
2022-10-06T15:18:59.747Z,17.70
2022-10-06T15:21:26.814Z,17.70
2022-10-06T15:23:57.219Z,17.70
2022-10-06T15:26:42.517Z,17.60
2022-10-06T15:29:09.304Z,17.50
2022-10-06T15:31:39.587Z,17.40
2022-10-06T15:34:07.249Z,17.30
2022-10-06T15:36:37.443Z,17.30
2022-10-06T15:39:07.883Z,17.20
2022-10-06T15:41:35.199Z,17.20
2022-10-06T15:44:02.166Z,17.20
2022-10-06T15:46:49.192Z,17.20
2022-10-06T15:49:17.066Z,17.20
2022-10-06T15:51:49.223Z,17.20
2022-10-06T15:54:20.033Z,17.10
2022-10-06T15:56:47.696Z,17.10
2022-10-06T15:59:14.846Z,17.10
2022-10-06T16:01:46.960Z,17.00
2022-10-06T16:04:19.803Z,17.00
2022-10-06T16:07:04.554Z,17.00
2022-10-06T16:09:32.259Z,16.90
2022-10-06T16:11:59.333Z,16.90
2022-10-06T16:14:26.171Z,16.90
2022-10-06T16:16:53.104Z,16.90
2022-10-06T16:19:20.099Z,16.80
2022-10-06T16:21:47.587Z,16.80
2022-10-06T16:24:14.400Z,16.80
2022-10-06T16:26:41.212Z,16.70
2022-10-06T16:29:08.052Z,16.70
2022-10-06T16:31:35.007Z,16.70
2022-10-06T16:34:01.867Z,16.60
2022-10-06T16:36:28.799Z,16.50
2022-10-06T16:38:55.566Z,16.50
2022-10-06T16:41:22.491Z,16.50
2022-10-06T16:43:50.077Z,16.40
2022-10-06T16:46:21.218Z,16.40
2022-10-06T16:48:48.482Z,16.30
2022-10-06T16:51:19.201Z,16.20
2022-10-06T16:53:47.063Z,16.20
2022-10-06T16:56:23.570Z,16.10
2022-10-06T16:58:53.442Z,16.10
2022-10-06T17:01:21.042Z,16.10
2022-10-06T17:03:47.957Z,16.00
2022-10-06T17:06:15.499Z,15.90
2022-10-06T17:08:42.436Z,15.90
2022-10-06T17:11:09.277Z,15.90
2022-10-06T17:13:36.565Z,15.80
2022-10-06T17:16:04.758Z,15.70
2022-10-06T17:18:31.973Z,15.60
2022-10-06T17:20:59.214Z,15.60
2022-10-06T17:23:26.177Z,15.50
2022-10-06T17:26:01.555Z,15.40
2022-10-06T17:28:28.455Z,15.40
2022-10-06T17:30:59.554Z,15.30
2022-10-06T17:33:27.358Z,15.30
2022-10-06T17:35:55.302Z,15.20
2022-10-06T17:38:22.119Z,15.10
2022-10-06T17:40:49.488Z,15.10
2022-10-06T17:43:16.477Z,15.00
2022-10-06T17:45:43.418Z,15.00
2022-10-06T17:48:12.111Z,14.90
2022-10-06T17:50:39.154Z,14.90
2022-10-06T17:53:06.004Z,14.90
2022-10-06T17:55:35.227Z,14.80
2022-10-06T17:58:02.013Z,14.80
2022-10-06T18:00:28.827Z,14.70
2022-10-06T18:02:57.614Z,14.70
2022-10-06T18:05:24.566Z,14.60
2022-10-06T18:07:51.439Z,14.60
2022-10-06T18:10:36.765Z,14.60
2022-10-06T18:13:03.534Z,14.60
2022-10-06T18:15:35.211Z,14.50
2022-10-06T18:18:02.174Z,14.40
2022-10-06T18:20:30.871Z,14.40
2022-10-06T18:22:57.721Z,14.40
2022-10-06T18:25:26.981Z,14.30
2022-10-06T18:27:53.887Z,14.30
2022-10-06T18:30:20.703Z,14.20
2022-10-06T18:38:21.135Z,14.20
2022-10-06T18:40:55.085Z,14.10
2022-10-06T18:43:21.868Z,14.10
2022-10-06T18:46:07.447Z,14.10
2022-10-06T18:48:53.027Z,14.10
2022-10-06T18:51:21.701Z,14.10
2022-10-06T18:53:48.527Z,14.00
2022-10-06T18:56:17.023Z,14.00
2022-10-06T18:58:47.240Z,14.00
2022-10-06T19:01:15.008Z,14.00
2022-10-06T19:03:41.912Z,14.00
2022-10-06T19:06:08.718Z,13.90
2022-10-06T19:08:35.982Z,13.90
2022-10-06T19:11:24.583Z,13.90
2022-10-06T19:13:53.254Z,13.90
2022-10-06T19:16:20.294Z,13.80
2022-10-06T19:18:47.159Z,13.80
2022-10-06T19:21:13.922Z,13.80
2022-10-06T19:23:40.787Z,13.70
2022-10-06T19:26:08.198Z,13.70
2022-10-06T19:28:35.760Z,13.70
2022-10-06T19:31:04.062Z,13.70
2022-10-06T19:33:31.018Z,13.60
2022-10-06T19:35:57.998Z,13.60
2022-10-06T19:38:25.250Z,13.60
2022-10-06T19:40:52.038Z,13.60
2022-10-06T19:43:19.236Z,13.60
2022-10-06T19:45:55.430Z,13.60
2022-10-06T19:48:22.247Z,13.60
2022-10-06T19:50:48.985Z,13.60
2022-10-06T19:53:16.650Z,13.50
2022-10-06T19:55:43.738Z,13.50
2022-10-06T19:58:10.550Z,13.50
2022-10-06T20:00:37.351Z,13.50
2022-10-06T20:03:07.514Z,13.50
2022-10-06T20:05:35.025Z,13.50
2022-10-06T20:08:02.115Z,13.50
2022-10-06T20:10:28.873Z,13.40
2022-10-06T20:12:55.705Z,13.50
2022-10-06T20:15:22.721Z,13.50
2022-10-06T20:17:49.653Z,13.40
2022-10-06T20:20:17.380Z,13.40
2022-10-06T20:22:44.171Z,13.40
2022-10-06T20:25:11.095Z,13.40
2022-10-06T20:27:37.936Z,13.40
2022-10-06T20:30:04.925Z,13.40
2022-10-06T20:32:31.711Z,13.40
2022-10-06T20:34:58.538Z,13.40
2022-10-06T20:37:25.311Z,13.40
2022-10-06T20:40:10.754Z,13.40
2022-10-06T20:42:37.574Z,13.30
2022-10-06T20:45:04.527Z,13.40
2022-10-06T20:47:31.426Z,13.30
2022-10-06T20:49:58.192Z,13.30
2022-10-06T20:52:24.999Z,13.30
2022-10-06T20:54:52.148Z,13.30
2022-10-06T20:57:18.965Z,13.30
2022-10-06T20:59:46.242Z,13.30
2022-10-06T21:02:13.437Z,13.30
2022-10-06T21:04:40.848Z,13.30
2022-10-06T21:07:08.108Z,13.30
2022-10-06T21:09:34.872Z,13.20
2022-10-06T21:12:04.460Z,13.20
2022-10-06T21:14:31.308Z,13.20
2022-10-06T21:16:58.098Z,13.20
2022-10-06T21:19:25.229Z,13.20
2022-10-06T21:21:53.751Z,13.10
2022-10-06T21:24:20.762Z,13.10
2022-10-06T21:26:47.834Z,13.10
2022-10-06T21:29:15.919Z,13.10
2022-10-06T21:31:43.348Z,13.10
2022-10-06T21:34:10.607Z,13.10
2022-10-06T21:36:37.504Z,13.00
2022-10-06T21:39:06.980Z,13.00
2022-10-06T21:41:39.352Z,13.00
2022-10-06T21:44:10.220Z,13.00
2022-10-06T21:46:40.951Z,12.90
2022-10-06T21:49:10.991Z,12.90
2022-10-06T21:51:37.889Z,12.90
2022-10-06T21:54:04.825Z,12.90
2022-10-06T21:56:32.008Z,12.90
2022-10-06T21:58:58.909Z,12.90
2022-10-06T22:01:27.195Z,12.90
2022-10-06T22:03:54.664Z,12.90
2022-10-06T22:06:22.189Z,12.90
2022-10-06T22:08:49.120Z,12.90
2022-10-06T22:11:19.793Z,12.90
2022-10-06T22:13:47.273Z,12.90
2022-10-06T22:16:15.147Z,12.90
2022-10-06T22:18:42.034Z,12.90
2022-10-06T22:21:11.993Z,12.90
2022-10-06T22:23:39.794Z,12.90
2022-10-06T22:26:06.744Z,12.90
2022-10-06T22:28:34.391Z,12.90
2022-10-06T22:31:04.369Z,12.90
2022-10-06T22:33:31.252Z,12.90
2022-10-06T22:35:58.089Z,12.90
2022-10-06T22:38:24.924Z,12.80
2022-10-06T22:40:51.810Z,12.80
2022-10-06T22:43:18.575Z,12.80
2022-10-06T22:45:45.321Z,12.80
2022-10-06T22:48:12.140Z,12.80
2022-10-06T22:50:38.887Z,12.80
2022-10-06T22:53:05.684Z,12.80
2022-10-06T22:55:32.484Z,12.80
2022-10-06T22:57:59.316Z,12.70
2022-10-06T23:00:27.662Z,12.70
2022-10-06T23:02:54.725Z,12.70
2022-10-06T23:05:21.678Z,12.60
2022-10-06T23:07:50.581Z,12.60
2022-10-06T23:10:18.587Z,12.60
2022-10-06T23:12:47.360Z,12.60
2022-10-06T23:15:14.779Z,12.60
2022-10-06T23:17:42.068Z,12.60
2022-10-06T23:20:09.417Z,12.60
2022-10-06T23:22:36.186Z,12.60
2022-10-06T23:25:03.201Z,12.50
2022-10-06T23:27:29.974Z,12.50
2022-10-06T23:29:56.760Z,12.50
2022-10-06T23:32:23.632Z,12.50
2022-10-06T23:34:50.438Z,12.50
2022-10-06T23:37:17.174Z,12.50
2022-10-06T23:39:44.049Z,12.40
2022-10-06T23:42:10.841Z,12.40
2022-10-06T23:44:37.619Z,12.40
2022-10-06T23:47:04.453Z,12.40
2022-10-06T23:49:33.528Z,12.40
2022-10-06T23:52:00.712Z,12.40
2022-10-06T23:54:27.472Z,12.40
2022-10-06T23:56:55.674Z,12.40
2022-10-06T23:59:22.597Z,12.40
